createdAt,value
2022-08-17T00:01:51.730Z,19.75
2022-08-17T00:04:20.479Z,19.70
2022-08-17T00:06:49.281Z,19.69
2022-08-17T00:09:19.014Z,19.70
2022-08-17T00:12:40.660Z,19.70
2022-08-17T00:14:36.568Z,19.68
2022-08-17T00:17:04.783Z,19.66
2022-08-17T00:19:32.878Z,19.50
2022-08-17T00:22:32.107Z,19.44
2022-08-17T00:24:47.683Z,19.51
2022-08-17T00:27:14.499Z,19.52
2022-08-17T00:29:42.224Z,19.52
2022-08-17T00:33:12.093Z,19.51
2022-08-17T00:34:55.786Z,19.56
2022-08-17T00:37:22.653Z,19.58
2022-08-17T00:39:49.412Z,19.56
2022-08-17T00:42:19.681Z,19.53
2022-08-17T00:44:46.550Z,19.50
2022-08-17T00:47:13.218Z,19.49
2022-08-17T00:49:40.238Z,19.46
2022-08-17T00:52:15.753Z,19.42
2022-08-17T00:54:47.122Z,19.40
2022-08-17T00:57:34.794Z,19.38
2022-08-17T01:00:08.949Z,19.36
2022-08-17T01:02:42.754Z,19.29
2022-08-17T01:05:20.886Z,19.28
2022-08-17T01:07:51.022Z,19.28
2022-08-17T01:10:59.360Z,19.27
2022-08-17T01:13:11.357Z,19.23
2022-08-17T01:15:46.189Z,19.18
2022-08-17T01:18:14.210Z,19.18
2022-08-17T01:20:52.940Z,19.15
2022-08-17T01:23:22.443Z,19.16
2022-08-17T01:25:55.291Z,19.16
2022-08-17T01:28:52.832Z,19.16
2022-08-17T01:31:12.605Z,19.15
2022-08-17T01:33:39.551Z,19.14
2022-08-17T01:36:07.652Z,19.13
2022-08-17T01:38:39.356Z,19.10
2022-08-17T01:41:14.380Z,19.04
2022-08-17T01:43:49.134Z,19.03
2022-08-17T01:46:23.426Z,19.01
2022-08-17T01:48:51.571Z,18.99
2022-08-17T01:51:19.112Z,18.82
2022-08-17T01:53:52.534Z,18.86
2022-08-17T01:56:23.011Z,18.86
2022-08-17T01:58:50.138Z,18.88
2022-08-17T02:01:23.923Z,18.90
2022-08-17T02:03:54.561Z,18.93
2022-08-17T02:06:29.833Z,18.92
2022-08-17T02:09:03.052Z,18.90
2022-08-17T02:11:32.822Z,18.87
2022-08-17T02:14:03.504Z,18.85
2022-08-17T02:16:37.332Z,18.82
2022-08-17T02:19:09.516Z,18.81
2022-08-17T02:21:38.203Z,18.81
2022-08-17T02:24:11.505Z,18.80
2022-08-17T02:26:42.958Z,18.80
2022-08-17T02:29:12.129Z,18.80
2022-08-17T02:31:43.853Z,18.79
2022-08-17T02:34:16.089Z,18.76
2022-08-17T02:36:45.122Z,18.73
2022-08-17T02:39:14.025Z,18.71
2022-08-17T02:41:42.827Z,18.69
2022-08-17T02:44:13.851Z,18.67
2022-08-17T02:47:04.601Z,18.66
2022-08-17T02:49:32.561Z,18.63
2022-08-17T02:52:02.988Z,18.64
2022-08-17T02:54:41.233Z,18.64
2022-08-17T02:57:15.813Z,18.62
2022-08-17T02:59:48.766Z,18.64
2022-08-17T03:02:17.480Z,18.66
2022-08-17T03:04:45.302Z,18.69
2022-08-17T03:07:16.285Z,18.69
2022-08-17T03:09:45.579Z,18.71
2022-08-17T03:12:18.198Z,18.70
2022-08-17T03:14:57.194Z,18.70
2022-08-17T03:20:16.644Z,18.69
2022-08-17T03:22:53.643Z,18.69
2022-08-17T03:28:12.137Z,18.71
2022-08-17T03:30:43.246Z,18.70
2022-08-17T03:33:13.656Z,18.69
2022-08-17T03:35:42.096Z,18.69
2022-08-17T03:38:12.635Z,18.70
2022-08-17T03:40:57.160Z,18.70
2022-08-17T03:43:31.239Z,18.71
2022-08-17T03:46:28.943Z,18.70
2022-08-17T03:49:27.997Z,18.65
2022-08-17T03:52:15.962Z,18.63
2022-08-17T03:55:02.598Z,18.60
2022-08-17T03:57:30.401Z,18.57
2022-08-17T03:59:57.310Z,18.56
2022-08-17T04:02:30.386Z,18.57
2022-08-17T04:04:57.525Z,18.60
2022-08-17T04:07:27.488Z,18.61
2022-08-17T04:09:54.816Z,18.62
2022-08-17T04:12:23.674Z,18.63
2022-08-17T04:14:53.763Z,18.63
2022-08-17T04:17:27.062Z,18.62
2022-08-17T04:19:54.686Z,18.61
2022-08-17T04:22:31.095Z,18.57
2022-08-17T04:25:14.645Z,18.56
2022-08-17T04:27:41.257Z,18.54
2022-08-17T04:30:08.710Z,18.54
2022-08-17T04:33:18.071Z,18.50
2022-08-17T04:35:47.863Z,18.51
2022-08-17T04:38:19.371Z,18.54
2022-08-17T04:41:05.068Z,18.56
2022-08-17T04:43:33.990Z,18.55
2022-08-17T04:46:07.171Z,18.55
2022-08-17T04:48:40.178Z,18.55
2022-08-17T04:51:23.202Z,18.52
2022-08-17T04:53:54.489Z,18.56
2022-08-17T04:56:23.573Z,18.53
2022-08-17T04:58:52.995Z,18.53
2022-08-17T05:01:24.025Z,18.51
2022-08-17T05:03:52.911Z,18.48
2022-08-17T05:06:19.753Z,18.49
2022-08-17T05:08:46.585Z,18.51
2022-08-17T05:11:13.342Z,18.54
2022-08-17T05:13:40.176Z,18.56
2022-08-17T05:16:07.199Z,18.57
2022-08-17T05:18:33.967Z,18.59
2022-08-17T05:21:00.898Z,18.58
2022-08-17T05:23:37.843Z,18.60
2022-08-17T05:26:26.153Z,18.61
2022-08-17T05:29:00.538Z,18.63
2022-08-17T05:31:30.578Z,18.65
2022-08-17T05:33:57.772Z,18.66
2022-08-17T05:36:42.950Z,18.69
2022-08-17T05:39:17.054Z,18.72
2022-08-17T05:41:46.100Z,18.76
2022-08-17T05:44:12.739Z,18.76
2022-08-17T05:46:42.015Z,18.80
2022-08-17T05:49:09.581Z,18.82
2022-08-17T05:52:04.446Z,18.81
2022-08-17T05:55:13.135Z,18.83
2022-08-17T05:57:56.258Z,18.84
2022-08-17T06:00:31.899Z,18.87
2022-08-17T06:03:06.826Z,18.88
2022-08-17T06:05:55.404Z,18.92
2022-08-17T06:09:00.358Z,18.95
2022-08-17T06:11:53.971Z,18.97
2022-08-17T06:14:32.486Z,19.01
2022-08-17T06:17:04.901Z,19.02
2022-08-17T06:19:47.447Z,19.00
2022-08-17T06:22:16.660Z,19.01
2022-08-17T06:24:52.097Z,19.00
2022-08-17T06:27:21.792Z,19.01
2022-08-17T06:29:57.446Z,19.09
2022-08-17T06:32:25.270Z,19.10
2022-08-17T06:34:53.152Z,19.10
2022-08-17T06:37:42.953Z,19.11
2022-08-17T06:40:12.518Z,19.13
2022-08-17T06:43:05.850Z,19.13
2022-08-17T06:45:49.400Z,19.11
2022-08-17T06:48:25.566Z,19.12
2022-08-17T06:51:00.774Z,19.13
2022-08-17T06:53:36.321Z,19.15
2022-08-17T06:56:19.597Z,19.16
2022-08-17T06:58:47.044Z,19.20
2022-08-17T07:01:31.728Z,19.17
2022-08-17T07:04:15.686Z,19.22
2022-08-17T07:06:53.661Z,19.23
2022-08-17T07:09:29.564Z,19.22
2022-08-17T07:12:18.372Z,19.24
2022-08-17T07:14:54.135Z,19.28
2022-08-17T07:17:46.654Z,19.31
2022-08-17T07:20:16.127Z,19.31
2022-08-17T07:22:58.157Z,19.31
2022-08-17T07:25:28.830Z,19.33
2022-08-17T07:28:00.256Z,19.36
2022-08-17T07:30:37.277Z,19.37
2022-08-17T07:33:20.513Z,19.39
2022-08-17T07:35:49.965Z,19.41
2022-08-17T07:38:29.205Z,19.41
2022-08-17T07:41:02.262Z,19.45
2022-08-17T07:43:37.573Z,19.45
2022-08-17T07:46:43.110Z,19.47
2022-08-17T07:49:09.744Z,19.52
2022-08-17T07:51:48.360Z,19.55
2022-08-17T07:54:15.197Z,19.57
2022-08-17T07:56:49.984Z,19.58
2022-08-17T07:59:33.809Z,19.59
2022-08-17T08:02:10.144Z,19.62
2022-08-17T08:05:00.709Z,19.63
2022-08-17T08:08:05.933Z,19.62
2022-08-17T08:10:36.732Z,19.63
2022-08-17T08:13:30.812Z,19.67
2022-08-17T08:16:14.811Z,19.73
2022-08-17T08:18:54.772Z,19.83
2022-08-17T08:21:54.805Z,19.92
2022-08-17T08:24:42.873Z,20.04
2022-08-17T08:27:09.491Z,20.08
2022-08-17T08:29:48.325Z,20.21
2022-08-17T08:32:35.350Z,20.30
2022-08-17T08:35:44.673Z,20.30
2022-08-17T08:38:23.566Z,20.33
2022-08-17T08:40:53.339Z,20.34
2022-08-17T08:43:52.325Z,20.34
2022-08-17T08:46:22.981Z,20.38
2022-08-17T08:49:45.143Z,20.46
2022-08-17T08:52:40.727Z,20.58
2022-08-17T08:55:26.969Z,20.66
2022-08-17T08:58:02.896Z,20.67
2022-08-17T09:00:35.792Z,20.66
2022-08-17T09:03:52.691Z,20.63
2022-08-17T09:06:38.532Z,20.63
2022-08-17T09:09:43.757Z,20.61
2022-08-17T09:12:33.194Z,20.66
2022-08-17T09:15:16.966Z,20.70
2022-08-17T09:18:08.596Z,20.72
2022-08-17T09:20:50.157Z,20.74
2022-08-17T09:24:06.077Z,20.78
2022-08-17T09:26:37.998Z,20.86
2022-08-17T09:29:09.943Z,20.90
2022-08-17T09:32:04.017Z,20.95
2022-08-17T09:34:36.463Z,21.01
2022-08-17T09:37:13.166Z,21.08
2022-08-17T09:39:48.317Z,21.11
2022-08-17T09:42:23.768Z,21.12
2022-08-17T09:45:23.924Z,21.10
2022-08-17T09:47:58.039Z,21.15
2022-08-17T09:51:03.159Z,21.19
2022-08-17T09:53:19.819Z,21.26
2022-08-17T09:56:11.227Z,21.30
2022-08-17T09:59:17.345Z,21.30
2022-08-17T10:01:50.574Z,21.31
2022-08-17T10:04:32.306Z,21.32
2022-08-17T10:07:26.117Z,21.39
2022-08-17T10:10:19.794Z,21.50
2022-08-17T10:12:49.526Z,21.63
2022-08-17T10:15:44.260Z,21.74
2022-08-17T10:18:25.427Z,21.88
2022-08-17T10:21:23.705Z,21.98
2022-08-17T10:25:21.702Z,22.02
2022-08-17T10:27:54.888Z,22.05
2022-08-17T10:30:25.277Z,22.05
2022-08-17T10:32:57.122Z,22.05
2022-08-17T10:35:34.095Z,22.05
2022-08-17T10:38:38.215Z,21.98
2022-08-17T10:41:40.414Z,21.94
2022-08-17T10:44:39.449Z,21.93
2022-08-17T10:47:15.078Z,21.97
2022-08-17T10:49:54.030Z,21.98
2022-08-17T10:52:21.959Z,22.04
2022-08-17T10:54:51.440Z,22.07
2022-08-17T10:57:31.908Z,22.11
2022-08-17T11:00:02.919Z,22.17
2022-08-17T11:02:50.596Z,22.26
2022-08-17T11:05:32.779Z,22.31
2022-08-17T11:08:27.588Z,22.43
2022-08-17T11:11:12.427Z,22.52
2022-08-17T11:13:50.051Z,22.56
2022-08-17T11:16:35.533Z,22.57
2022-08-17T11:19:14.281Z,22.62
2022-08-17T11:22:07.477Z,22.68
2022-08-17T11:24:55.853Z,22.70
2022-08-17T11:27:36.637Z,22.68
2022-08-17T11:30:11.205Z,22.65
2022-08-17T11:32:54.748Z,22.68
2022-08-17T11:35:21.843Z,22.73
2022-08-17T11:38:16.002Z,22.75
2022-08-17T11:40:59.981Z,22.75
2022-08-17T11:43:44.479Z,22.75
2022-08-17T11:46:54.230Z,22.69
2022-08-17T11:50:03.757Z,22.69
2022-08-17T11:52:47.011Z,22.70
2022-08-17T11:55:44.763Z,22.72
2022-08-17T11:58:29.714Z,22.73
2022-08-17T12:00:59.570Z,22.72
2022-08-17T12:03:54.310Z,22.70
2022-08-17T12:06:44.243Z,22.70
2022-08-17T12:09:14.135Z,22.68
2022-08-17T12:12:13.728Z,22.63
2022-08-17T12:17:40.891Z,22.56
2022-08-17T12:20:40.610Z,22.53
2022-08-17T12:23:16.374Z,22.53
2022-08-17T12:26:15.246Z,22.52
2022-08-17T12:28:46.516Z,22.51
2022-08-17T12:31:26.683Z,22.51
2022-08-17T12:33:54.123Z,22.50
2022-08-17T12:36:24.851Z,22.51
2022-08-17T12:39:14.070Z,22.52
2022-08-17T12:41:47.219Z,22.47
2022-08-17T12:44:21.757Z,22.52
2022-08-17T12:47:01.862Z,22.51
2022-08-17T12:49:37.045Z,22.50
2022-08-17T12:52:17.036Z,22.52
2022-08-17T12:54:51.425Z,22.53
2022-08-17T12:57:31.351Z,22.50
2022-08-17T13:00:09.382Z,22.49
2022-08-17T13:02:41.385Z,22.43
2022-08-17T13:05:17.949Z,22.46
2022-08-17T13:07:46.648Z,22.46
2022-08-17T13:10:24.268Z,22.48
2022-08-17T13:12:52.962Z,22.49
2022-08-17T13:15:29.652Z,22.54
2022-08-17T13:17:59.313Z,22.60
2022-08-17T13:20:26.525Z,22.64
2022-08-17T13:22:57.209Z,22.65
2022-08-17T13:25:25.911Z,22.70
2022-08-17T13:27:54.323Z,22.73
2022-08-17T13:30:28.057Z,22.73
2022-08-17T13:32:57.091Z,22.76
2022-08-17T13:35:40.371Z,22.75
2022-08-17T13:38:15.273Z,22.78
2022-08-17T13:40:50.221Z,22.85
2022-08-17T13:43:48.627Z,22.80
2022-08-17T13:46:26.354Z,22.77
2022-08-17T13:49:06.044Z,22.70
2022-08-17T13:51:36.365Z,22.65
2022-08-17T13:54:05.684Z,22.61
2022-08-17T13:57:06.771Z,22.51
2022-08-17T13:59:55.196Z,22.46
2022-08-17T14:02:22.721Z,22.42
2022-08-17T14:04:53.893Z,22.38
2022-08-17T14:07:27.168Z,22.33
2022-08-17T14:09:57.930Z,22.27
2022-08-17T14:12:26.923Z,22.29
2022-08-17T14:14:59.612Z,22.25
2022-08-17T14:17:29.445Z,22.25
2022-08-17T14:19:56.176Z,22.21
2022-08-17T14:22:28.642Z,22.18
2022-08-17T14:24:57.841Z,22.13
2022-08-17T14:27:28.113Z,22.16
2022-08-17T14:29:55.974Z,22.14
2022-08-17T14:32:26.755Z,22.13
2022-08-17T14:34:56.932Z,22.11
2022-08-17T14:37:27.882Z,22.05
2022-08-17T14:39:57.069Z,21.96
2022-08-17T14:42:26.357Z,21.85
2022-08-17T14:44:54.966Z,21.77
2022-08-17T14:47:22.219Z,21.65
2022-08-17T14:49:49.302Z,21.48
2022-08-17T14:52:24.121Z,21.30
2022-08-17T14:54:53.061Z,21.14
2022-08-17T14:57:25.833Z,21.00
2022-08-17T15:00:02.293Z,20.85
2022-08-17T15:02:31.010Z,20.74
2022-08-17T15:05:05.588Z,20.63
2022-08-17T15:07:32.395Z,20.57
2022-08-17T15:10:01.459Z,20.57
2022-08-17T15:12:32.694Z,20.49
2022-08-17T15:15:01.121Z,20.47
2022-08-17T15:17:43.928Z,20.41
2022-08-17T15:20:18.130Z,20.37
2022-08-17T15:22:49.752Z,20.37
2022-08-17T15:25:19.365Z,20.35
2022-08-17T15:27:46.207Z,20.34
2022-08-17T15:30:13.815Z,20.35
2022-08-17T15:32:51.396Z,20.36
2022-08-17T15:35:28.315Z,20.39
2022-08-17T15:38:10.655Z,20.42
2022-08-17T15:40:40.484Z,20.42
2022-08-17T15:43:14.016Z,20.43
2022-08-17T15:45:41.028Z,20.44
2022-08-17T15:48:08.024Z,20.44
2022-08-17T15:50:35.198Z,20.43
2022-08-17T15:53:03.579Z,20.42
2022-08-17T15:55:32.187Z,20.42
2022-08-17T15:57:59.285Z,20.43
2022-08-17T16:00:28.462Z,20.44
2022-08-17T16:03:20.199Z,20.41
2022-08-17T16:05:43.543Z,20.36
2022-08-17T16:08:11.130Z,20.36
2022-08-17T16:10:38.075Z,20.37
2022-08-17T16:13:05.040Z,20.37
2022-08-17T16:15:51.042Z,20.34
2022-08-17T16:18:31.193Z,20.37
2022-08-17T16:21:23.548Z,20.39
2022-08-17T16:23:53.676Z,20.42
2022-08-17T16:26:22.923Z,20.44
2022-08-17T16:28:50.283Z,20.43
2022-08-17T16:31:17.327Z,20.38
2022-08-17T16:34:03.873Z,20.36
2022-08-17T16:36:32.035Z,20.23
2022-08-17T16:38:59.399Z,20.26
2022-08-17T16:41:45.265Z,20.26
2022-08-17T16:44:17.166Z,20.28
2022-08-17T16:46:45.572Z,20.26
2022-08-17T16:49:29.655Z,20.18
2022-08-17T16:52:01.697Z,20.01
2022-08-17T16:54:28.480Z,20.05
2022-08-17T16:56:55.788Z,20.08
2022-08-17T16:59:31.063Z,20.11
2022-08-17T17:02:12.966Z,20.13
2022-08-17T17:05:17.801Z,20.13
2022-08-17T17:08:09.208Z,20.19
2022-08-17T17:10:44.759Z,20.23
2022-08-17T17:13:34.501Z,20.27
2022-08-17T17:16:07.174Z,20.27
2022-08-17T17:18:49.115Z,20.25
2022-08-17T17:21:25.199Z,20.33
2022-08-17T17:24:01.107Z,20.34
2022-08-17T17:26:48.448Z,20.35
2022-08-17T17:29:27.371Z,20.40
2022-08-17T17:32:13.976Z,20.40
2022-08-17T17:34:50.873Z,20.42
2022-08-17T17:37:26.210Z,20.42
2022-08-17T17:40:00.102Z,20.41
2022-08-17T17:42:31.545Z,20.37
2022-08-17T17:45:20.120Z,20.31
2022-08-17T17:47:47.808Z,20.30
2022-08-17T17:50:18.056Z,20.27
2022-08-17T17:53:04.494Z,20.28
2022-08-17T17:55:31.159Z,20.26
2022-08-17T17:58:19.488Z,20.22
2022-08-17T18:00:54.089Z,20.21
2022-08-17T18:04:00.477Z,20.17
2022-08-17T18:06:45.373Z,20.11
2022-08-17T18:09:12.735Z,20.13
2022-08-17T18:11:59.051Z,20.14
2022-08-17T18:14:36.947Z,20.12
2022-08-17T18:17:03.966Z,20.12
2022-08-17T18:19:31.718Z,20.11
2022-08-17T18:22:07.860Z,20.10
2022-08-17T18:24:45.038Z,20.07
2022-08-17T18:27:34.009Z,20.04
2022-08-17T18:30:20.924Z,20.03
2022-08-17T18:32:48.046Z,20.06
2022-08-17T18:35:14.851Z,20.06
2022-08-17T18:37:44.933Z,20.07
2022-08-17T18:40:37.664Z,20.06
2022-08-17T18:43:24.349Z,20.05
2022-08-17T18:45:57.746Z,20.03
2022-08-17T18:48:33.082Z,20.02
2022-08-17T18:51:40.733Z,19.98
2022-08-17T18:54:21.287Z,19.98
2022-08-17T18:56:56.517Z,19.92
2022-08-17T18:59:28.757Z,19.92
2022-08-17T19:02:27.337Z,19.88
2022-08-17T19:05:26.002Z,19.84
2022-08-17T19:07:53.133Z,19.80
2022-08-17T19:10:28.280Z,19.79
2022-08-17T19:13:12.462Z,19.78
2022-08-17T19:16:15.046Z,19.78
2022-08-17T19:18:51.066Z,19.70
2022-08-17T19:21:40.322Z,19.69
2022-08-17T19:24:21.954Z,19.69
2022-08-17T19:26:56.767Z,19.67
2022-08-17T19:29:43.738Z,19.64
2022-08-17T19:32:14.109Z,19.63
2022-08-17T19:34:42.971Z,19.65
2022-08-17T19:37:28.140Z,19.64
2022-08-17T19:40:35.033Z,19.64
2022-08-17T19:43:21.963Z,19.67
2022-08-17T19:46:11.867Z,19.65
2022-08-17T19:49:06.709Z,19.61
2022-08-17T19:51:51.995Z,19.63
2022-08-17T19:54:35.073Z,19.60
2022-08-17T19:57:14.506Z,19.59
2022-08-17T19:59:57.044Z,19.60
2022-08-17T20:02:41.661Z,19.62
2022-08-17T20:05:17.348Z,19.56
2022-08-17T20:07:50.191Z,19.58
2022-08-17T20:10:34.536Z,19.57
2022-08-17T20:13:08.259Z,19.56
2022-08-17T20:15:39.570Z,19.55
2022-08-17T20:18:13.367Z,19.54
2022-08-17T20:20:58.584Z,19.52
2022-08-17T20:24:05.947Z,19.49
2022-08-17T20:26:58.802Z,19.38
2022-08-17T20:30:11.850Z,19.39
2022-08-17T20:32:48.869Z,19.39
2022-08-17T20:35:19.957Z,19.39
2022-08-17T20:38:04.627Z,19.36
2022-08-17T20:40:35.652Z,19.35
2022-08-17T20:43:33.719Z,19.30
2022-08-17T20:46:41.488Z,19.27
2022-08-17T20:49:11.168Z,19.17
2022-08-17T20:52:03.007Z,19.23
2022-08-17T20:54:42.162Z,19.15
2022-08-17T20:57:29.761Z,19.21
2022-08-17T20:59:59.468Z,19.21
2022-08-17T21:02:28.468Z,19.20
2022-08-17T21:05:02.007Z,19.20
2022-08-17T21:07:42.990Z,19.19
2022-08-17T21:10:14.084Z,19.18
2022-08-17T21:12:42.319Z,19.19
2022-08-17T21:15:20.109Z,19.06
2022-08-17T21:17:56.584Z,19.08
2022-08-17T21:20:33.209Z,19.09
2022-08-17T21:23:30.013Z,19.08
2022-08-17T21:26:35.785Z,19.05
2022-08-17T21:29:31.912Z,19.07
2022-08-17T21:31:59.737Z,19.08
2022-08-17T21:34:43.153Z,19.06
2022-08-17T21:37:18.905Z,19.10
2022-08-17T21:39:51.296Z,19.17
2022-08-17T21:42:25.156Z,19.26
2022-08-17T21:44:54.996Z,19.33
2022-08-17T21:47:26.682Z,19.46
2022-08-17T21:49:55.240Z,19.54
2022-08-17T21:52:26.977Z,19.63
2022-08-17T21:54:57.069Z,19.69
2022-08-17T21:57:29.421Z,19.71
2022-08-17T22:00:02.159Z,19.76
2022-08-17T22:02:34.450Z,19.78
2022-08-17T22:05:06.849Z,19.81
2022-08-17T22:07:58.736Z,19.86
2022-08-17T22:10:45.189Z,19.89
2022-08-17T22:13:18.095Z,19.93
2022-08-17T22:16:15.329Z,19.94
2022-08-17T22:18:57.638Z,19.95
2022-08-17T22:21:25.205Z,19.96
2022-08-17T22:24:04.558Z,19.98
2022-08-17T22:27:02.240Z,19.98
2022-08-17T22:29:53.195Z,19.99
2022-08-17T22:32:37.464Z,20.02
2022-08-17T22:35:26.701Z,19.98
2022-08-17T22:37:53.501Z,19.98
2022-08-17T22:40:32.816Z,19.94
2022-08-17T22:43:02.533Z,19.96
2022-08-17T22:45:30.498Z,19.97
2022-08-17T22:48:00.640Z,19.98
2022-08-17T22:50:33.134Z,19.96
2022-08-17T22:53:31.617Z,19.98
2022-08-17T22:56:16.937Z,19.95
2022-08-17T22:59:16.303Z,19.89
2022-08-17T23:01:45.629Z,19.85
2022-08-17T23:04:31.366Z,19.85
2022-08-17T23:06:58.343Z,19.83
2022-08-17T23:09:25.101Z,19.82
2022-08-17T23:11:58.602Z,19.79
2022-08-17T23:14:31.776Z,19.79
2022-08-17T23:17:01.840Z,19.78
2022-08-17T23:19:31.746Z,19.76
2022-08-17T23:22:00.146Z,19.75
2022-08-17T23:24:29.960Z,19.70
2022-08-17T23:26:58.159Z,19.70
2022-08-17T23:29:29.415Z,19.67
2022-08-17T23:32:00.066Z,19.66
2022-08-17T23:34:28.151Z,19.66
2022-08-17T23:36:55.850Z,19.65
2022-08-17T23:39:24.514Z,19.65
2022-08-17T23:41:54.637Z,19.62
2022-08-17T23:44:26.633Z,19.63
2022-08-17T23:46:54.136Z,19.62
2022-08-17T23:49:21.045Z,19.62
2022-08-17T23:51:48.941Z,19.57
2022-08-17T23:54:46.710Z,19.55
2022-08-17T23:57:17.604Z,19.51
2022-08-17T23:59:44.967Z,19.49
